Terminal Aerodrome Forecast
Issued by NWS

Home | Current Version | Previous Version | Text Only | Print | Product List | Glossary Off
Versions: 1 2 3 4 5 6 7 8 9 10 11 12 13 14 15

000
FTUS43 KICT 011720
TAFCNU
TAF
KCNU 011720Z 0118/0218 16005KT P6SM SCT040
     FM021000 18005KT 5SM BR SKC
     FM021500 20013KT P6SM SKC=

USA.gov is the U.S. government's official web portal to all federal, state and local government web resources and services.